Wetterdaten: Woche 08.07.19 - 14.07.19 (KW28)
Datum Zeit Temp. 2m rel. Feuchte Luftdruck Regen Wind Richtung Sonne ET UV-Index Solar Taupunkt Ben
08.07.2019 00:00 13,2 C 69 % 1017,2 hPa 0,0 mm 0,2 km/h (0 Bft) O 0,00 h 0,0 mm 0,0 UV-I 0 W/m 7,6 C 0,7 km/h (0 Bft)
08.07.2019 01:00 12,1 C 73 % 1017,5 hPa 0,0 mm 0,1 km/h (0 Bft) N 0,00 h 0,0 mm 0,0 UV-I 0 W/m 7,4 C 1,3 km/h (1 Bft)
08.07.2019 02:00 11,5 C 76 % 1017,6 hPa 0,0 mm 0,0 km/h (0 Bft) N 0,00 h 0,0 mm 0,0 UV-I 0 W/m 7,4 C 0,0 km/h (0 Bft)
08.07.2019 03:00 10,6 C 79 % 1017,8 hPa 0,0 mm 2,4 km/h (1 Bft) O 0,00 h 0,0 mm 0,0 UV-I 0 W/m 7,2 C 5,9 km/h (2 Bft)
08.07.2019 04:00 10,1 C 81 % 1018,0 hPa 0,0 mm 1,6 km/h (1 Bft) O 0,00 h 0,0 mm 0,0 UV-I 0 W/m 7,1 C 4,0 km/h (1 Bft)
08.07.2019 05:00 9,8 C 82 % 1018,1 hPa 0,0 mm 3,9 km/h (1 Bft) O 0,00 h 0,0 mm 0,0 UV-I 9 W/m 6,9 C 7,1 km/h (2 Bft)
08.07.2019 06:00 9,8 C 85 % 1018,5 hPa 0,0 mm 3,4 km/h (1 Bft) O 0,00 h 0,0 mm 0,0 UV-I 34 W/m 7,4 C 7,1 km/h (2 Bft)
08.07.2019 07:00 11,4 C 84 % 1018,9 hPa 0,0 mm 4,3 km/h (1 Bft) O 0,00 h 0,0 mm 0,0 UV-I 84 W/m 8,8 C 9,6 km/h (2 Bft)
08.07.2019 08:00 12,7 C 79 % 1019,2 hPa 0,0 mm 5,1 km/h (1 Bft) O 0,00 h 0,1 mm 0,0 UV-I 148 W/m 9,2 C 12,4 km/h (3 Bft)
08.07.2019 09:00 14,4 C 72 % 1019,6 hPa 0,0 mm 3,9 km/h (1 Bft) O 0,17 h 0,1 mm 0,6 UV-I 302 W/m 9,5 C 14,6 km/h (3 Bft)
08.07.2019 10:00 15,3 C 67 % 1019,6 hPa 0,0 mm 3,3 km/h (1 Bft) O 0,00 h 0,1 mm 0,4 UV-I 206 W/m 9,1 C 14,1 km/h (3 Bft)
08.07.2019 11:00 15,9 C 63 % 1019,5 hPa 0,0 mm 3,7 km/h (1 Bft) O 0,25 h 0,1 mm 1,0 UV-I 370 W/m 8,9 C 14,1 km/h (3 Bft)
08.07.2019 12:00 16,0 C 61 % 1019,5 hPa 0,0 mm 1,8 km/h (1 Bft) O 0,17 h 0,2 mm 1,2 UV-I 341 W/m 8,6 C 9,3 km/h (2 Bft)
08.07.2019 13:00 16,5 C 60 % 1019,4 hPa 0,0 mm 1,3 km/h (1 Bft) O 0,25 h 0,2 mm 1,2 UV-I 343 W/m 8,8 C 7,0 km/h (2 Bft)
08.07.2019 14:00 16,9 C 59 % 1019,3 hPa 0,0 mm 0,7 km/h (0 Bft) O 0,17 h 0,2 mm 0,8 UV-I 227 W/m 8,8 C 4,3 km/h (1 Bft)
08.07.2019 15:00 17,2 C 56 % 1019,3 hPa 0,0 mm 2,1 km/h (1 Bft) O 0,00 h 0,1 mm 0,8 UV-I 329 W/m 8,4 C 10,0 km/h (2 Bft)
08.07.2019 16:00 17,9 C 55 % 1019,1 hPa 0,0 mm 3,2 km/h (1 Bft) O 0,08 h 0,2 mm 0,9 UV-I 305 W/m 8,7 C 12,0 km/h (2 Bft)
08.07.2019 17:00 17,6 C 56 % 1019,0 hPa 0,0 mm 1,5 km/h (1 Bft) O 0,25 h 0,2 mm 0,5 UV-I 288 W/m 8,7 C 7,0 km/h (2 Bft)
08.07.2019 18:00 17,7 C 55 % 1018,8 hPa 0,0 mm 1,0 km/h (0 Bft) O 0,42 h 0,2 mm 0,5 UV-I 249 W/m 8,6 C 5,7 km/h (1 Bft)
08.07.2019 19:00 17,3 C 57 % 1018,7 hPa 0,0 mm 1,0 km/h (0 Bft) O 0,00 h 0,1 mm 0,0 UV-I 129 W/m 8,7 C 5,0 km/h (1 Bft)
08.07.2019 20:00 16,6 C 59 % 1018,8 hPa 0,0 mm 0,3 km/h (0 Bft) N 0,00 h 0,1 mm 0,0 UV-I 54 W/m 8,6 C 2,2 km/h (1 Bft)
08.07.2019 21:00 15,9 C 62 % 1019,1 hPa 0,0 mm 0,0 km/h (0 Bft) N 0,08 h 0,0 mm 0,0 UV-I 16 W/m 8,7 C 1,3 km/h (1 Bft)
08.07.2019 22:00 14,7 C 69 % 1019,7 hPa 0,0 mm 0,0 km/h (0 Bft) N 0,00 h 0,0 mm 0,0 UV-I 0 W/m 9,0 C 0,2 km/h (0 Bft)
08.07.2019 23:00 13,4 C 73 % 1020,2 hPa 0,0 mm 0,0 km/h (0 Bft) N 0,00 h 0,0 mm 0,0 UV-I 0 W/m 8,7 C 0,7 km/h (0 Bft)
09.07.2019 00:00 12,1 C 78 % 1020,5 hPa 0,0 mm 0,5 km/h (0 Bft) N-NO 0,00 h 0,0 mm 0,0 UV-I 0 W/m 8,3 C 2,2 km/h (1 Bft)
09.07.2019 01:00 11,6 C 79 % 1020,4 hPa 0,0 mm 0,0 km/h (0 Bft) N 0,00 h 0,0 mm 0,0 UV-I 0 W/m 8,2 C 0,0 km/h (0 Bft)
09.07.2019 02:00 10,6 C 82 % 1020,4 hPa 0,0 mm 1,1 km/h (1 Bft) N-NO 0,00 h 0,0 mm 0,0 UV-I 0 W/m 7,8 C 4,1 km/h (1 Bft)
09.07.2019 03:00 9,9 C 86 % 1020,3 hPa 0,0 mm 0,9 km/h (0 Bft) O 0,00 h 0,0 mm 0,0 UV-I 0 W/m 7,6 C 3,1 km/h (1 Bft)
09.07.2019 04:00 9,9 C 86 % 1020,2 hPa 0,0 mm 1,7 km/h (1 Bft) O 0,00 h 0,0 mm 0,0 UV-I 0 W/m 7,7 C 5,0 km/h (1 Bft)
09.07.2019 05:00 10,6 C 86 % 1020,4 hPa 0,0 mm 1,5 km/h (1 Bft) O 0,00 h 0,0 mm 0,0 UV-I 9 W/m 8,4 C 6,1 km/h (2 Bft)
09.07.2019 06:00 10,9 C 86 % 1020,7 hPa 0,0 mm 1,9 km/h (1 Bft) O 0,08 h 0,0 mm 0,0 UV-I 46 W/m 8,7 C 6,5 km/h (2 Bft)
09.07.2019 07:00 12,1 C 84 % 1020,8 hPa 0,0 mm 0,0 km/h (0 Bft) N 0,58 h 0,0 mm 0,0 UV-I 172 W/m 9,4 C 0,7 km/h (0 Bft)
09.07.2019 08:00 13,7 C 74 % 1021,0 hPa 0,0 mm 0,0 km/h (0 Bft) N 0,42 h 0,1 mm 0,0 UV-I 208 W/m 9,1 C 0,9 km/h (0 Bft)
09.07.2019 09:00 15,1 C 62 % 1021,1 hPa 0,0 mm 0,2 km/h (0 Bft) N 0,83 h 0,1 mm 0,4 UV-I 447 W/m 7,9 C 2,4 km/h (1 Bft)
09.07.2019 10:00 16,3 C 54 % 1021,1 hPa 0,0 mm 0,6 km/h (0 Bft) O 0,75 h 0,2 mm 0,7 UV-I 546 W/m 7,1 C 4,6 km/h (1 Bft)
09.07.2019 11:00 16,8 C 51 % 1021,0 hPa 0,0 mm 0,3 km/h (0 Bft) N 0,58 h 0,3 mm 1,4 UV-I 531 W/m 6,5 C 3,3 km/h (1 Bft)
09.07.2019 12:00 17,8 C 47 % 1020,8 hPa 0,0 mm 0,2 km/h (0 Bft) O 0,75 h 0,3 mm 2,0 UV-I 684 W/m 6,4 C 1,6 km/h (1 Bft)
09.07.2019 13:00 18,3 C 47 % 1020,6 hPa 0,0 mm 0,9 km/h (0 Bft) O 0,25 h 0,3 mm 2,1 UV-I 509 W/m 6,6 C 5,0 km/h (1 Bft)
09.07.2019 14:00 19,0 C 45 % 1020,3 hPa 0,0 mm 0,9 km/h (0 Bft) O 0,08 h 0,3 mm 1,9 UV-I 434 W/m 6,6 C 5,5 km/h (1 Bft)
09.07.2019 15:00 19,1 C 44 % 1020,1 hPa 0,0 mm 0,8 km/h (0 Bft) O 0,08 h 0,3 mm 1,2 UV-I 340 W/m 6,5 C 4,6 km/h (1 Bft)
09.07.2019 16:00 21,2 C 38 % 1019,9 hPa 0,0 mm 2,8 km/h (1 Bft) N-NW 1,00 h 0,2 mm 2,4 UV-I 856 W/m 6,4 C 11,5 km/h (2 Bft)
09.07.2019 17:00 21,4 C 36 % 1019,5 hPa 0,0 mm 1,7 km/h (1 Bft) N-NW 0,83 h 0,5 mm 1,1 UV-I 629 W/m 5,7 C 8,3 km/h (2 Bft)
09.07.2019 18:00 20,7 C 38 % 1019,2 hPa 0,0 mm 0,9 km/h (0 Bft) N-NW 0,83 h 0,3 mm 0,4 UV-I 424 W/m 5,9 C 5,6 km/h (1 Bft)
09.07.2019 19:00 21,4 C 36 % 1019,1 hPa 0,0 mm 1,9 km/h (1 Bft) N-NO 1,00 h 0,2 mm 0,0 UV-I 355 W/m 5,7 C 10,2 km/h (2 Bft)
09.07.2019 20:00 20,0 C 40 % 1019,1 hPa 0,0 mm 0,1 km/h (0 Bft) N 0,33 h 0,2 mm 0,0 UV-I 83 W/m 6,0 C 1,3 km/h (1 Bft)
09.07.2019 21:00 18,4 C 43 % 1019,4 hPa 0,0 mm 0,0 km/h (0 Bft) N 0,17 h 0,1 mm 0,0 UV-I 18 W/m 5,7 C 0,7 km/h (0 Bft)
09.07.2019 22:00 16,8 C 49 % 1019,8 hPa 0,0 mm 0,0 km/h (0 Bft) N 0,00 h 0,0 mm 0,0 UV-I 0 W/m 5,9 C 0,0 km/h (0 Bft)
09.07.2019 23:00 15,2 C 54 % 1020,1 hPa 0,0 mm 0,0 km/h (0 Bft) N 0,00 h 0,0 mm 0,0 UV-I 0 W/m 6,0 C 0,0 km/h (0 Bft)
10.07.2019 00:00 13,9 C 61 % 1020,4 hPa 0,0 mm 0,0 km/h (0 Bft) N 0,00 h 0,0 mm 0,0 UV-I 0 W/m 6,5 C 0,0 km/h (0 Bft)
10.07.2019 01:00 12,5 C 67 % 1020,5 hPa 0,0 mm 0,7 km/h (0 Bft) O 0,00 h 0,0 mm 0,0 UV-I 0 W/m 6,6 C 1,5 km/h (1 Bft)
10.07.2019 02:00 11,3 C 72 % 1020,3 hPa 0,0 mm 1,5 km/h (1 Bft) O 0,00 h 0,0 mm 0,0 UV-I 0 W/m 6,4 C 4,1 km/h (1 Bft)
10.07.2019 03:00 10,5 C 76 % 1020,4 hPa 0,0 mm 2,1 km/h (1 Bft) O 0,00 h 0,0 mm 0,0 UV-I 0 W/m 6,5 C 5,4 km/h (1 Bft)
10.07.2019 04:00 9,8 C 79 % 1020,4 hPa 0,0 mm 1,4 km/h (1 Bft) O 0,00 h 0,0 mm 0,0 UV-I 0 W/m 6,4 C 3,8 km/h (1 Bft)
10.07.2019 05:00 9,4 C 82 % 1020,4 hPa 0,0 mm 0,7 km/h (0 Bft) O 0,00 h 0,0 mm 0,0 UV-I 6 W/m 6,4 C 3,0 km/h (1 Bft)
10.07.2019 06:00 9,3 C 84 % 1020,5 hPa 0,0 mm 0,3 km/h (0 Bft) O 0,00 h 0,0 mm 0,0 UV-I 45 W/m 6,7 C 2,2 km/h (1 Bft)
10.07.2019 07:00 10,1 C 85 % 1020,4 hPa 0,0 mm 0,4 km/h (0 Bft) O 0,83 h 0,0 mm 0,0 UV-I 192 W/m 7,6 C 1,8 km/h (1 Bft)
10.07.2019 08:00 11,9 C 81 % 1020,4 hPa 0,0 mm 0,4 km/h (0 Bft) O 1,00 h 0,0 mm 0,0 UV-I 419 W/m 8,8 C 1,5 km/h (1 Bft)
10.07.2019 09:00 14,3 C 72 % 1020,3 hPa 0,0 mm 1,0 km/h (0 Bft) O 1,00 h 0,1 mm 0,5 UV-I 635 W/m 9,3 C 4,8 km/h (1 Bft)
10.07.2019 10:00 17,1 C 61 % 1020,3 hPa 0,0 mm 0,9 km/h (0 Bft) O 1,00 h 0,2 mm 0,8 UV-I 758 W/m 9,4 C 5,7 km/h (1 Bft)
10.07.2019 11:00 18,8 C 46 % 1020,2 hPa 0,0 mm 1,7 km/h (1 Bft) O 1,00 h 0,4 mm 2,1 UV-I 856 W/m 6,8 C 7,8 km/h (2 Bft)
10.07.2019 12:00 21,0 C 34 % 1019,9 hPa 0,0 mm 3,1 km/h (1 Bft) O 1,00 h 0,4 mm 3,6 UV-I 990 W/m 4,3 C 10,2 km/h (2 Bft)
10.07.2019 13:00 21,9 C 30 % 1019,4 hPa 0,0 mm 1,5 km/h (1 Bft) NW 1,00 h 0,5 mm 4,4 UV-I 1066 W/m 3,5 C 6,8 km/h (2 Bft)
10.07.2019 14:00 24,1 C 27 % 1018,7 hPa 0,0 mm 4,6 km/h (1 Bft) W-NW 1,00 h 0,5 mm 4,2 UV-I 1044 W/m 3,8 C 13,7 km/h (3 Bft)
10.07.2019 15:00 24,3 C 24 % 1018,3 hPa 0,0 mm 1,9 km/h (1 Bft) W-NW 1,00 h 0,6 mm 3,4 UV-I 921 W/m 2,3 C 7,2 km/h (2 Bft)
10.07.2019 16:00 24,4 C 26 % 1017,9 hPa 0,0 mm 2,6 km/h (1 Bft) N-NW 0,67 h 0,5 mm 1,6 UV-I 551 W/m 3,8 C 10,0 km/h (2 Bft)
10.07.2019 17:00 23,7 C 31 % 1017,6 hPa 0,0 mm 2,5 km/h (1 Bft) O 0,42 h 0,3 mm 0,9 UV-I 335 W/m 5,4 C 8,9 km/h (2 Bft)
10.07.2019 18:00 22,7 C 33 % 1017,4 hPa 0,0 mm 0,8 km/h (0 Bft) O 0,58 h 0,2 mm 0,0 UV-I 238 W/m 5,8 C 5,2 km/h (1 Bft)
10.07.2019 19:00 21,7 C 38 % 1017,1 hPa 0,0 mm 0,0 km/h (0 Bft) N 0,00 h 0,1 mm 0,0 UV-I 100 W/m 6,8 C 0,4 km/h (0 Bft)
10.07.2019 20:00 20,5 C 45 % 1017,2 hPa 0,0 mm 0,2 km/h (0 Bft) N 0,00 h 0,1 mm 0,0 UV-I 43 W/m 8,0 C 2,4 km/h (1 Bft)
10.07.2019 21:00 17,8 C 65 % 1017,3 hPa 0,0 mm 0,1 km/h (0 Bft) N 0,00 h 0,0 mm 0,0 UV-I 7 W/m 11,2 C 1,3 km/h (1 Bft)
10.07.2019 22:00 16,4 C 77 % 1017,4 hPa 0,0 mm 0,0 km/h (0 Bft) N 0,00 h 0,0 mm 0,0 UV-I 0 W/m 12,3 C 0,4 km/h (0 Bft)
10.07.2019 23:00 16,0 C 78 % 1017,2 hPa 0,0 mm 0,0 km/h (0 Bft) N 0,00 h 0,0 mm 0,0 UV-I 0 W/m 12,3 C 0,2 km/h (0 Bft)
11.07.2019 00:00 16,2 C 77 % 1016,7 hPa 0,0 mm 0,4 km/h (0 Bft) O 0,00 h 0,0 mm 0,0 UV-I 0 W/m 12,2 C 2,4 km/h (1 Bft)
11.07.2019 01:00 16,5 C 78 % 1016,2 hPa 0,0 mm 0,8 km/h (0 Bft) O 0,00 h 0,0 mm 0,0 UV-I 0 W/m 12,6 C 3,7 km/h (1 Bft)
11.07.2019 02:00 16,1 C 83 % 1015,7 hPa 0,0 mm 0,6 km/h (0 Bft) O 0,00 h 0,0 mm 0,0 UV-I 0 W/m 13,3 C 3,9 km/h (1 Bft)
11.07.2019 03:00 16,2 C 82 % 1015,2 hPa 0,0 mm 1,4 km/h (1 Bft) O 0,00 h 0,0 mm 0,0 UV-I 0 W/m 13,2 C 5,2 km/h (1 Bft)
11.07.2019 04:00 16,3 C 79 % 1014,5 hPa 0,0 mm 0,7 km/h (0 Bft) O 0,00 h 0,0 mm 0,0 UV-I 0 W/m 12,8 C 4,4 km/h (1 Bft)
11.07.2019 05:00 16,3 C 81 % 1014,2 hPa 0,0 mm 0,6 km/h (0 Bft) O 0,00 h 0,0 mm 0,0 UV-I 7 W/m 13,1 C 3,1 km/h (1 Bft)
11.07.2019 06:00 16,4 C 82 % 1013,9 hPa 0,0 mm 0,4 km/h (0 Bft) O 0,00 h 0,0 mm 0,0 UV-I 25 W/m 13,4 C 3,5 km/h (1 Bft)
11.07.2019 07:00 16,7 C 82 % 1013,6 hPa 0,0 mm 1,3 km/h (1 Bft) O 0,00 h 0,0 mm 0,0 UV-I 52 W/m 13,6 C 5,5 km/h (1 Bft)
11.07.2019 08:00 17,1 C 78 % 1013,5 hPa 0,0 mm 2,0 km/h (1 Bft) O 0,00 h 0,0 mm 0,0 UV-I 68 W/m 13,3 C 7,2 km/h (2 Bft)
11.07.2019 09:00 17,8 C 75 % 1013,1 hPa 0,0 mm 3,1 km/h (1 Bft) O 0,00 h 0,1 mm 0,0 UV-I 168 W/m 13,3 C 11,1 km/h (2 Bft)
11.07.2019 10:00 19,1 C 68 % 1013,1 hPa 0,0 mm 2,7 km/h (1 Bft) O 0,00 h 0,1 mm 0,3 UV-I 200 W/m 12,9 C 9,1 km/h (2 Bft)
11.07.2019 11:00 19,6 C 70 % 1012,9 hPa 0,2 mm 2,5 km/h (1 Bft) O 0,00 h 0,1 mm 0,6 UV-I 233 W/m 13,9 C 8,1 km/h (2 Bft)
11.07.2019 12:00 20,6 C 66 % 1012,8 hPa 0,0 mm 4,6 km/h (1 Bft) O 0,00 h 0,1 mm 0,7 UV-I 301 W/m 14,1 C 13,1 km/h (3 Bft)
11.07.2019 13:00 21,8 C 63 % 1012,4 hPa 0,0 mm 6,8 km/h (2 Bft) O 0,08 h 0,2 mm 1,0 UV-I 349 W/m 14,4 C 15,9 km/h (3 Bft)
11.07.2019 14:00 23,2 C 58 % 1011,9 hPa 0,0 mm 6,0 km/h (2 Bft) O 0,58 h 0,2 mm 1,9 UV-I 555 W/m 14,4 C 16,5 km/h (3 Bft)
11.07.2019 15:00 24,1 C 54 % 1011,6 hPa 0,0 mm 6,7 km/h (2 Bft) O 0,33 h 0,3 mm 1,1 UV-I 420 W/m 14,1 C 16,7 km/h (3 Bft)
11.07.2019 16:00 24,7 C 50 % 1011,2 hPa 0,0 mm 8,7 km/h (2 Bft) O 0,42 h 0,3 mm 1,0 UV-I 424 W/m 13,5 C 23,5 km/h (4 Bft)
11.07.2019 17:00 25,2 C 48 % 1010,8 hPa 0,0 mm 9,1 km/h (2 Bft) O 0,75 h 0,3 mm 0,9 UV-I 405 W/m 13,4 C 25,0 km/h (4 Bft)
11.07.2019 18:00 24,8 C 43 % 1010,8 hPa 0,0 mm 8,0 km/h (2 Bft) O 0,50 h 0,3 mm 0,0 UV-I 272 W/m 11,4 C 23,7 km/h (4 Bft)
11.07.2019 19:00 24,2 C 42 % 1011,2 hPa 0,0 mm 9,1 km/h (2 Bft) O 0,67 h 0,2 mm 0,0 UV-I 205 W/m 10,5 C 25,9 km/h (4 Bft)
11.07.2019 20:00 23,4 C 47 % 1011,4 hPa 0,0 mm 3,9 km/h (1 Bft) O 0,25 h 0,2 mm 0,0 UV-I 65 W/m 11,4 C 12,2 km/h (2 Bft)
11.07.2019 21:00 22,3 C 52 % 1011,5 hPa 0,0 mm 0,6 km/h (0 Bft) O 0,00 h 0,1 mm 0,0 UV-I 15 W/m 11,9 C 3,9 km/h (1 Bft)
11.07.2019 22:00 21,0 C 57 % 1011,8 hPa 0,0 mm 1,9 km/h (1 Bft) O 0,00 h 0,0 mm 0,0 UV-I 0 W/m 12,3 C 5,2 km/h (1 Bft)
11.07.2019 23:00 19,8 C 62 % 1012,0 hPa 0,0 mm 1,6 km/h (1 Bft) O 0,00 h 0,0 mm 0,0 UV-I 0 W/m 12,3 C 4,6 km/h (1 Bft)
12.07.2019 00:00 18,8 C 65 % 1011,9 hPa 0,0 mm 1,3 km/h (1 Bft) O 0,00 h 0,0 mm 0,0 UV-I 0 W/m 12,1 C 4,0 km/h (1 Bft)
12.07.2019 01:00 18,0 C 69 % 1011,6 hPa 0,0 mm 3,3 km/h (1 Bft) O 0,00 h 0,0 mm 0,0 UV-I 0 W/m 12,2 C 6,3 km/h (2 Bft)
12.07.2019 02:00 17,5 C 71 % 1011,5 hPa 0,0 mm 0,7 km/h (0 Bft) O 0,00 h 0,0 mm 0,0 UV-I 0 W/m 12,2 C 2,9 km/h (1 Bft)
12.07.2019 03:00 17,4 C 72 % 1011,3 hPa 0,0 mm 0,0 km/h (0 Bft) N 0,00 h 0,0 mm 0,0 UV-I 0 W/m 12,3 C 0,0 km/h (0 Bft)
12.07.2019 04:00 16,9 C 74 % 1011,0 hPa 0,0 mm 0,0 km/h (0 Bft) N 0,00 h 0,0 mm 0,0 UV-I 0 W/m 12,2 C 0,0 km/h (0 Bft)
12.07.2019 05:00 16,2 C 78 % 1011,0 hPa 0,0 mm 0,0 km/h (0 Bft) N 0,00 h 0,0 mm 0,0 UV-I 8 W/m 12,4 C 0,0 km/h (0 Bft)
12.07.2019 06:00 16,1 C 79 % 1010,8 hPa 0,0 mm 0,4 km/h (0 Bft) O 0,00 h 0,0 mm 0,0 UV-I 45 W/m 12,4 C 2,4 km/h (1 Bft)
12.07.2019 07:00 16,9 C 78 % 1010,8 hPa 0,0 mm 0,7 km/h (0 Bft) O 1,00 h 0,0 mm 0,0 UV-I 219 W/m 13,1 C 4,8 km/h (1 Bft)
12.07.2019 08:00 18,6 C 75 % 1010,9 hPa 0,0 mm 1,2 km/h (1 Bft) O 1,00 h 0,1 mm 0,0 UV-I 310 W/m 14,0 C 4,8 km/h (1 Bft)
12.07.2019 09:00 20,2 C 67 % 1010,9 hPa 0,0 mm 0,7 km/h (0 Bft) O 1,00 h 0,1 mm 0,5 UV-I 480 W/m 13,9 C 4,1 km/h (1 Bft)
12.07.2019 10:00 21,9 C 57 % 1010,7 hPa 0,0 mm 1,6 km/h (1 Bft) N-NW 0,92 h 0,2 mm 0,7 UV-I 655 W/m 13,1 C 7,2 km/h (2 Bft)
12.07.2019 11:00 23,0 C 54 % 1010,4 hPa 0,0 mm 2,1 km/h (1 Bft) NW 0,83 h 0,3 mm 1,4 UV-I 747 W/m 13,2 C 8,1 km/h (2 Bft)
12.07.2019 12:00 23,8 C 51 % 1010,2 hPa 0,0 mm 3,0 km/h (1 Bft) NW 0,83 h 0,4 mm 1,5 UV-I 639 W/m 13,1 C 10,2 km/h (2 Bft)
12.07.2019 13:00 24,6 C 48 % 1009,6 hPa 0,0 mm 2,6 km/h (1 Bft) N-NW 0,58 h 0,4 mm 1,9 UV-I 613 W/m 12,8 C 10,2 km/h (2 Bft)
12.07.2019 14:00 24,4 C 49 % 1009,8 hPa 0,0 mm 3,6 km/h (1 Bft) O 0,17 h 0,4 mm 0,7 UV-I 289 W/m 12,9 C 14,6 km/h (3 Bft)
12.07.2019 15:00 22,3 C 55 % 1010,3 hPa 0,0 mm 12,1 km/h (2 Bft) O 0,00 h 0,2 mm 0,7 UV-I 290 W/m 12,8 C 29,3 km/h (5 Bft)
12.07.2019 16:00 21,2 C 61 % 1010,7 hPa 0,0 mm 4,1 km/h (1 Bft) O 0,67 h 0,2 mm 0,8 UV-I 432 W/m 13,3 C 14,8 km/h (3 Bft)
12.07.2019 17:00 20,9 C 66 % 1011,0 hPa 0,0 mm 7,3 km/h (2 Bft) O 0,00 h 0,2 mm 0,3 UV-I 182 W/m 14,3 C 22,4 km/h (4 Bft)
12.07.2019 18:00 20,0 C 72 % 1011,0 hPa 0,0 mm 6,0 km/h (2 Bft) O 0,08 h 0,1 mm 0,0 UV-I 160 W/m 14,8 C 18,2 km/h (3 Bft)
12.07.2019 19:00 19,5 C 75 % 1011,5 hPa 0,0 mm 3,3 km/h (1 Bft) O 0,17 h 0,1 mm 0,0 UV-I 113 W/m 14,8 C 14,1 km/h (3 Bft)
12.07.2019 20:00 18,7 C 72 % 1012,2 hPa 0,0 mm 1,8 km/h (1 Bft) O 0,17 h 0,1 mm 0,0 UV-I 71 W/m 13,5 C 7,4 km/h (2 Bft)
12.07.2019 21:00 17,9 C 79 % 1012,9 hPa 0,0 mm 3,9 km/h (1 Bft) O 0,00 h 0,1 mm 0,0 UV-I 11 W/m 14,2 C 14,4 km/h (3 Bft)
12.07.2019 22:00 15,3 C 87 % 1013,8 hPa 0,0 mm 1,6 km/h (1 Bft) O 0,00 h 0,0 mm 0,0 UV-I 0 W/m 13,1 C 4,1 km/h (1 Bft)
12.07.2019 23:00 15,8 C 90 % 1014,1 hPa 0,2 mm 0,7 km/h (0 Bft) O 0,00 h 0,0 mm 0,0 UV-I 0 W/m 14,1 C 3,7 km/h (1 Bft)
13.07.2019 00:00 16,0 C 88 % 1014,3 hPa 0,0 mm 1,0 km/h (0 Bft) O 0,00 h 0,0 mm 0,0 UV-I 0 W/m 14,0 C 6,7 km/h (2 Bft)
13.07.2019 01:00 15,2 C 87 % 1014,7 hPa 0,0 mm 2,0 km/h (1 Bft) O 0,00 h 0,0 mm 0,0 UV-I 0 W/m 13,1 C 6,3 km/h (2 Bft)
13.07.2019 02:00 14,7 C 89 % 1015,0 hPa 0,0 mm 0,8 km/h (0 Bft) O 0,00 h 0,0 mm 0,0 UV-I 0 W/m 12,9 C 6,5 km/h (2 Bft)
13.07.2019 03:00 14,9 C 89 % 1015,1 hPa 0,0 mm 0,8 km/h (0 Bft) O 0,00 h 0,0 mm 0,0 UV-I 0 W/m 13,1 C 4,6 km/h (1 Bft)
13.07.2019 04:00 14,5 C 91 % 1015,1 hPa 0,0 mm 2,9 km/h (1 Bft) O 0,00 h 0,0 mm 0,0 UV-I 0 W/m 13,1 C 8,0 km/h (2 Bft)
13.07.2019 05:00 14,8 C 92 % 1015,4 hPa 0,0 mm 3,7 km/h (1 Bft) O 0,00 h 0,0 mm 0,0 UV-I 7 W/m 13,6 C 10,0 km/h (2 Bft)
13.07.2019 06:00 15,0 C 93 % 1015,7 hPa 0,8 mm 5,7 km/h (1 Bft) O 0,00 h 0,0 mm 0,0 UV-I 12 W/m 13,8 C 14,2 km/h (3 Bft)
13.07.2019 07:00 15,1 C 95 % 1016,0 hPa 0,4 mm 3,7 km/h (1 Bft) O 0,00 h 0,0 mm 0,0 UV-I 45 W/m 14,2 C 12,8 km/h (3 Bft)
13.07.2019 08:00 15,5 C 95 % 1016,6 hPa 0,0 mm 3,4 km/h (1 Bft) O 0,00 h 0,0 mm 0,0 UV-I 141 W/m 14,7 C 13,7 km/h (3 Bft)
13.07.2019 09:00 16,6 C 91 % 1017,0 hPa 0,0 mm 1,9 km/h (1 Bft) O 0,17 h 0,1 mm 0,0 UV-I 236 W/m 15,0 C 9,6 km/h (2 Bft)
13.07.2019 10:00 17,4 C 85 % 1017,3 hPa 0,0 mm 1,7 km/h (1 Bft) O 0,17 h 0,1 mm 0,5 UV-I 284 W/m 14,9 C 10,2 km/h (2 Bft)
13.07.2019 11:00 17,9 C 83 % 1017,7 hPa 0,0 mm 1,4 km/h (1 Bft) N-NO 0,00 h 0,1 mm 0,7 UV-I 244 W/m 14,9 C 8,1 km/h (2 Bft)
13.07.2019 12:00 16,5 C 90 % 1017,9 hPa 0,0 mm 0,0 km/h (0 Bft) O 0,00 h 0,1 mm 0,4 UV-I 183 W/m 14,7 C 1,3 km/h (1 Bft)
13.07.2019 13:00 17,9 C 84 % 1018,0 hPa 0,0 mm 3,3 km/h (1 Bft) O 0,17 h 0,1 mm 1,3 UV-I 406 W/m 15,1 C 11,3 km/h (2 Bft)
13.07.2019 14:00 20,3 C 72 % 1017,8 hPa 0,0 mm 3,0 km/h (1 Bft) O 0,58 h 0,2 mm 2,3 UV-I 610 W/m 15,0 C 10,7 km/h (2 Bft)
13.07.2019 15:00 19,9 C 72 % 1017,6 hPa 0,2 mm 5,0 km/h (1 Bft) O 0,17 h 0,3 mm 0,7 UV-I 196 W/m 14,7 C 12,7 km/h (3 Bft)
13.07.2019 16:00 20,7 C 71 % 1017,4 hPa 0,0 mm 3,8 km/h (1 Bft) O 0,83 h 0,2 mm 1,6 UV-I 607 W/m 15,2 C 12,9 km/h (3 Bft)
13.07.2019 17:00 21,0 C 70 % 1017,4 hPa 0,0 mm 6,4 km/h (2 Bft) O 0,17 h 0,3 mm 0,5 UV-I 251 W/m 15,2 C 17,6 km/h (3 Bft)
13.07.2019 18:00 20,9 C 69 % 1017,2 hPa 0,0 mm 2,2 km/h (1 Bft) O 0,58 h 0,2 mm 0,4 UV-I 256 W/m 14,9 C 8,5 km/h (2 Bft)
13.07.2019 19:00 20,0 C 72 % 1017,5 hPa 0,0 mm 1,3 km/h (1 Bft) O 0,00 h 0,1 mm 0,0 UV-I 90 W/m 14,7 C 6,3 km/h (2 Bft)
13.07.2019 20:00 19,1 C 76 % 1017,7 hPa 0,0 mm 1,5 km/h (1 Bft) O 0,00 h 0,1 mm 0,0 UV-I 38 W/m 14,7 C 6,7 km/h (2 Bft)
13.07.2019 21:00 18,2 C 78 % 1018,2 hPa 0,0 mm 0,5 km/h (0 Bft) O 0,08 h 0,0 mm 0,0 UV-I 11 W/m 14,3 C 4,8 km/h (1 Bft)
13.07.2019 22:00 17,5 C 78 % 1018,7 hPa 0,0 mm 0,2 km/h (0 Bft) N 0,00 h 0,0 mm 0,0 UV-I 0 W/m 13,6 C 2,6 km/h (1 Bft)
13.07.2019 23:00 16,8 C 76 % 1019,0 hPa 0,0 mm 0,1 km/h (0 Bft) N 0,00 h 0,0 mm 0,0 UV-I 0 W/m 12,5 C 1,5 km/h (1 Bft)
14.07.2019 00:00 15,7 C 79 % 1019,2 hPa 0,0 mm 0,1 km/h (0 Bft) N 0,00 h 0,0 mm 0,0 UV-I 0 W/m 12,0 C 1,3 km/h (1 Bft)
14.07.2019 01:00 15,3 C 83 % 1019,2 hPa 0,0 mm 0,1 km/h (0 Bft) N 0,00 h 0,0 mm 0,0 UV-I 0 W/m 12,4 C 1,1 km/h (1 Bft)
14.07.2019 02:00 14,7 C 86 % 1019,2 hPa 0,0 mm 0,0 km/h (0 Bft) N 0,00 h 0,0 mm 0,0 UV-I 0 W/m 12,4 C 0,2 km/h (0 Bft)
14.07.2019 03:00 14,8 C 86 % 1019,0 hPa 0,0 mm 0,2 km/h (0 Bft) O 0,00 h 0,0 mm 0,0 UV-I 0 W/m 12,5 C 1,7 km/h (1 Bft)
14.07.2019 04:00 14,8 C 81 % 1018,8 hPa 0,0 mm 0,1 km/h (0 Bft) N 0,00 h 0,0 mm 0,0 UV-I 0 W/m 11,6 C 1,5 km/h (1 Bft)
14.07.2019 05:00 14,5 C 75 % 1018,8 hPa 0,0 mm 0,1 km/h (0 Bft) N 0,00 h 0,0 mm 0,0 UV-I 6 W/m 10,2 C 1,1 km/h (1 Bft)
14.07.2019 06:00 13,8 C 72 % 1018,8 hPa 0,0 mm 0,0 km/h (0 Bft) N 0,00 h 0,0 mm 0,0 UV-I 30 W/m 8,9 C 1,3 km/h (1 Bft)
14.07.2019 07:00 13,9 C 73 % 1018,8 hPa 0,0 mm 0,1 km/h (0 Bft) N 0,00 h 0,0 mm 0,0 UV-I 109 W/m 9,1 C 1,7 km/h (1 Bft)
14.07.2019 08:00 14,5 C 69 % 1019,1 hPa 0,0 mm 0,1 km/h (0 Bft) N 0,00 h 0,1 mm 0,0 UV-I 160 W/m 8,9 C 2,2 km/h (1 Bft)
14.07.2019 09:00 14,9 C 66 % 1019,5 hPa 0,0 mm 0,2 km/h (0 Bft) O 0,00 h 0,1 mm 0,0 UV-I 184 W/m 8,6 C 2,4 km/h (1 Bft)
14.07.2019 10:00 15,8 C 64 % 1019,5 hPa 0,0 mm 0,3 km/h (0 Bft) NW 0,33 h 0,1 mm 0,6 UV-I 319 W/m 8,9 C 2,9 km/h (1 Bft)
14.07.2019 11:00 16,3 C 63 % 1019,6 hPa 0,0 mm 0,4 km/h (0 Bft) N-NO 0,00 h 0,2 mm 0,5 UV-I 284 W/m 9,2 C 3,5 km/h (1 Bft)
14.07.2019 12:00 16,7 C 64 % 1019,6 hPa 0,0 mm 0,2 km/h (0 Bft) N 0,00 h 0,1 mm 0,9 UV-I 330 W/m 9,9 C 2,6 km/h (1 Bft)
14.07.2019 13:00 17,3 C 63 % 1019,5 hPa 0,0 mm 0,3 km/h (0 Bft) N 0,42 h 0,2 mm 1,3 UV-I 476 W/m 10,1 C 2,8 km/h (1 Bft)
14.07.2019 14:00 17,7 C 62 % 1019,4 hPa 0,0 mm 0,4 km/h (0 Bft) N 0,00 h 0,2 mm 1,0 UV-I 381 W/m 10,2 C 3,9 km/h (1 Bft)
14.07.2019 15:00 18,1 C 59 % 1019,2 hPa 0,0 mm 0,4 km/h (0 Bft) O 0,00 h 0,2 mm 0,8 UV-I 329 W/m 9,9 C 2,9 km/h (1 Bft)
14.07.2019 16:00 18,1 C 59 % 1019,1 hPa 0,0 mm 0,1 km/h (0 Bft) N 0,00 h 0,2 mm 0,4 UV-I 222 W/m 10,0 C 2,0 km/h (1 Bft)
14.07.2019 17:00 18,3 C 60 % 1018,9 hPa 0,0 mm 0,2 km/h (0 Bft) N 0,00 h 0,1 mm 0,4 UV-I 237 W/m 10,4 C 2,0 km/h (1 Bft)
14.07.2019 18:00 18,3 C 61 % 1018,7 hPa 0,0 mm 0,1 km/h (0 Bft) N 0,00 h 0,1 mm 0,0 UV-I 132 W/m 10,7 C 1,3 km/h (1 Bft)
14.07.2019 19:00 18,0 C 64 % 1018,8 hPa 0,0 mm 0,0 km/h (0 Bft) N 0,00 h 0,1 mm 0,0 UV-I 43 W/m 11,1 C 0,2 km/h (0 Bft)
14.07.2019 20:00 17,8 C 66 % 1018,8 hPa 0,0 mm 0,0 km/h (0 Bft) N 0,00 h 0,0 mm 0,0 UV-I 17 W/m 11,3 C 0,0 km/h (0 Bft)
14.07.2019 21:00 17,3 C 69 % 1018,9 hPa 0,0 mm 0,0 km/h (0 Bft) N 0,00 h 0,0 mm 0,0 UV-I 8 W/m 11,7 C 0,0 km/h (0 Bft)
14.07.2019 22:00 16,9 C 71 % 1019,2 hPa 0,0 mm 0,0 km/h (0 Bft) N 0,00 h 0,0 mm 0,0 UV-I 0 W/m 11,7 C 0,2 km/h (0 Bft)
14.07.2019 23:00 16,7 C 74 % 1019,2 hPa 0,0 mm 0,0 km/h (0 Bft) N 0,00 h 0,0 mm 0,0 UV-I 0 W/m 11,9 C 0,2 km/h (0 Bft)
Min-Datum _ 10.07.19 10.07.19 12.07.19 - 08.07.19 - - - - - 10.07.19 08.07.19
_ Min-Zeit 05:40 15:35 13:40 - 00:00 - - - - - 15:35 00:00
Minimum _ 9,2 C 21 % 1009,4 hPa - 0,0 km/h (0 Bft) - - - - - 0,6 C 0,0 km/h (0 Bft)
Max-Datum _ 11.07.19 13.07.19 09.07.19 13.07.19 12.07.19 - 08.07.19 10.07.19 10.07.19 10.07.19 13.07.19 12.07.19
_ Max-Zeit 17:35 07:15 08:05 06:25 15:40 - 09:15 15:00 13:25 13:55 16:10 15:35
Maximum _ 25,5 C 95 % 1021,2 hPa 0,8 mm 16,8 km/h
O (3 Bft)
- 0,08 h 0,6 mm 4,5 UV-I 1145 W/m 16,2 C 37,8 km/h
O (5 Bft)
Durchschnitt _ 17,1 C 67 % 1016,9 hPa #1,8 mm 1,8 km/h (1 Bft) O #35:35 h #17,322 mm 1,2 UV-I 284 W/m 10,5 C 6,3 km/h (2 Bft)



© 1998 - 2019 www.pulheimwetter.de